Hauptseite
METAR-TAF:

METAR-TAF

Flughäfen :

Büchel, Deutschland

Fliegerhorst Büchel

Breite: 50-10N, Länge: 007-04E, Höhe: 478 m

Beobachtung

Neuester Wetterbericht von vor 13 Minuten, um 11:20 UTC
Wind 21 kt aus Ost/Nordost
Temperatur 11°C
Luftfeuchtigkeit 40%
Luftdruck 1025 hPa
Sichtweite 10 km oder mehr

METAR: ETSB 251120Z AUTO 06021KT 9999 // ////// 11/M02 Q1025 ///

Zeit: 12:33 (11:33 UTC)

Prognose

Neuester Wetterbericht von vor 13 Minuten, um 11:20 UTC
Gültige Prognose vom 24 um 11 UTC bis 24 um 18 UTC
Wind 12 kt aus Ost/Nordost
Sichtweite: 5000 m
Durchbrochene Bewölkung in der Höhe von 800 ft
feuchter Dunst
Übergehend zu
vom 24 um 11 UTC bis 24 um 12 UTC
Wind 15 kt aus Ost/Nordost
Sichtweite: 1130 m
Aufgelockert bewölkt in der Höhe von 1200 ft
Durchbrochene Bewölkung in der Höhe von 27000 ft

TAF: ETSB 241120Z 2411/2418 06012KT 5000 BR BKN008 BECMG 2411/2412 07015KT 8000 NSW SCT012 BKN270 CANCEL 1130 BY ETGL

Wetterbeobachtungen und Prognosen von mehr als 4000 Flughäfen (METAR und TAF Bericht).

Die verfügbaren Stationen werden durch gelbe und rote Markierungen auf der Karte dargestellt.

Führen Sie die Maus auf sie, um den Namen der Station zu sehen.

Darauf klicken, um die Beobachtung von Wetterbeobachtungen und Prognosen zu sehen.

Um die Karte zu ändern : klicken Sie auf den grünen Tasten mit einem schwarzen Kreuz Zum Vergrößern, auf den grünen Button mit einem Gedankenstrich zu verkleinern, oder auf die grünen Pfeile für benachbarte Karten.


METAR-TAF: